Terminal Aerodrome Forecast
Issued by NWS Missoula, MT

Home | Current Version | Previous Version | Text Only | Print | Product List | Glossary On
Versions: 1 2 3 4 5 6 7 8 9 10 11 12 13 14 15 16 17 18 19 20 21 22 23 24
000
FTUS45 KMSO 211720
TAFGPI
TAF
KGPI 211720Z 2118/2218 01006KT P6SM SCT080
     FM211900 17006KT P6SM SCT100
     FM220200 VRB03KT P6SM SCT100
     FM220900 VRB03KT P6SM VCFG FEW010
     FM221400 16005KT P6SM SKC=

USA.gov is the U.S. government's official web portal to all federal, state and local government web resources and services.